Time;durP1;ratioP1;P1;durP2;ratioP2;P2;SDS_P1;SDS_P2;PMS_P1;PMS_P2;Temp;Humidity;BMP_temperature;BMP_pressure;BME280_temperature;BME280_humidity;BME280_pressure;Samples;Min_cycle;Max_cycle;Signal;HPM_P1;HPM_P2
2023/07/23 00:01:56;;;;;;;2.83;2.47;;;;;;;18.12;100.00;96307.97;5054036;27;105225;-63
2023/07/23 00:04:23;;;;;;;3.83;2.40;;;;;;;18.17;100.00;96304.34;5070643;27;102567;-63
2023/07/23 00:06:51;;;;;;;3.70;2.50;;;;;;;18.08;100.00;96306.97;5053821;27;102027;-63
2023/07/23 00:09:18;;;;;;;4.53;2.40;;;;;;;18.07;100.00;96305.38;5075405;27;102619;-63
2023/07/23 00:11:45;;;;;;;4.83;2.70;;;;;;;18.05;100.00;96312.16;5072509;27;101883;-63
2023/07/23 00:14:12;;;;;;;3.57;2.80;;;;;;;17.86;100.00;96304.16;5072510;27;102623;-63
2023/07/23 00:16:39;;;;;;;4.57;2.97;;;;;;;17.98;100.00;96301.00;5071809;27;102643;-63
2023/07/23 00:19:06;;;;;;;2.70;2.50;;;;;;;18.01;100.00;96311.13;5053936;27;101936;-63
2023/07/23 00:21:33;;;;;;;2.97;2.40;;;;;;;18.05;100.00;96298.69;5072208;27;102465;-63
2023/07/23 00:24:04;;;;;;;4.33;2.60;;;;;;;17.99;100.00;96297.19;5053195;27;105911;-63
2023/07/23 00:26:31;;;;;;;2.87;2.60;;;;;;;18.07;100.00;96297.28;5053925;27;101832;-63
2023/07/23 00:28:58;;;;;;;2.90;2.70;;;;;;;17.91;100.00;96290.59;5072185;27;102275;-63
2023/07/23 00:31:25;;;;;;;3.33;2.50;;;;;;;18.11;100.00;96300.19;5056611;27;105515;-63
2023/07/23 00:33:52;;;;;;;4.10;2.70;;;;;;;18.11;100.00;96295.59;5053603;27;105183;-63
2023/07/23 00:36:18;;;;;;;3.90;2.40;;;;;;;18.15;100.00;96299.28;5071410;27;102555;-63
2023/07/23 00:38:45;;;;;;;3.77;2.40;;;;;;;18.07;100.00;96294.59;5053357;27;101950;-63
2023/07/23 00:41:14;;;;;;;3.23;2.60;;;;;;;17.94;100.00;96281.16;5053533;27;105155;-63
2023/07/23 00:43:41;;;;;;;2.80;2.60;;;;;;;17.77;100.00;96280.94;5052948;27;104771;-63
2023/07/23 00:46:09;;;;;;;3.83;2.73;;;;;;;17.44;100.00;96282.09;5053356;27;102122;-63
2023/07/23 00:48:36;;;;;;;2.70;2.37;;;;;;;17.40;100.00;96278.38;5053434;27;105239;-63
2023/07/23 00:51:04;;;;;;;3.20;2.90;;;;;;;17.17;100.00;96271.25;5052719;27;105872;-63
2023/07/23 00:53:31;;;;;;;3.80;2.93;;;;;;;17.04;100.00;96280.03;5056833;27;101808;-63
2023/07/23 00:56:00;;;;;;;4.73;3.33;;;;;;;17.05;100.00;96274.38;5052700;27;105432;-63
2023/07/23 00:58:28;;;;;;;5.03;3.07;;;;;;;17.02;100.00;96276.84;5053207;27;102160;-63
2023/07/23 01:00:56;;;;;;;3.40;2.70;;;;;;;16.93;100.00;96278.59;5053079;27;105755;-63
2023/07/23 01:03:23;;;;;;;3.13;2.93;;;;;;;16.73;100.00;96271.66;5070966;27;103302;-63
2023/07/23 01:05:51;;;;;;;3.67;3.17;;;;;;;16.47;100.00;96272.31;5052968;27;101926;-63
2023/07/23 01:08:21;;;;;;;3.30;3.00;;;;;;;16.16;100.00;96263.03;5071902;27;102411;-63
2023/07/23 01:10:48;;;;;;;3.10;2.80;;;;;;;16.26;100.00;96268.28;5052282;27;104339;-63
2023/07/23 01:13:16;;;;;;;4.93;3.10;;;;;;;16.14;100.00;96259.84;5056646;27;101884;-63
2023/07/23 01:15:45;;;;;;;3.80;2.93;;;;;;;16.26;100.00;96261.03;5051978;27;105817;-64
2023/07/23 01:18:12;;;;;;;3.80;3.03;;;;;;;16.30;100.00;96258.56;5052712;27;101808;-63
2023/07/23 01:20:39;;;;;;;4.13;3.20;;;;;;;16.24;100.00;96257.81;5052867;27;105677;-63
2023/07/23 01:23:07;;;;;;;5.33;3.10;;;;;;;16.56;100.00;96257.16;5052172;27;105568;-63
2023/07/23 01:25:35;;;;;;;6.23;2.90;;;;;;;16.67;100.00;96248.66;5052874;27;101861;-63
2023/07/23 01:28:02;;;;;;;3.43;2.63;;;;;;;16.42;100.00;96256.28;5052945;27;105156;-63
2023/07/23 01:30:28;;;;;;;2.87;2.67;;;;;;;16.32;100.00;96251.03;5070714;27;102848;-63
2023/07/23 01:32:56;;;;;;;3.50;2.90;;;;;;;16.13;100.00;96252.91;5052547;27;102059;-63
2023/07/23 01:35:24;;;;;;;3.27;2.93;;;;;;;16.11;100.00;96252.38;5055456;27;105740;-63
2023/07/23 01:37:52;;;;;;;5.17;3.10;;;;;;;16.01;100.00;96245.25;5052514;27;102211;-63
2023/07/23 01:40:20;;;;;;;3.00;2.70;;;;;;;16.14;100.00;96249.13;5052567;27;104760;-63
2023/07/23 01:42:47;;;;;;;3.70;2.63;;;;;;;16.17;100.00;96249.34;5052059;27;105373;-63
2023/07/23 01:45:14;;;;;;;3.37;2.90;;;;;;;16.04;100.00;96238.53;5071000;27;102171;-63
2023/07/23 01:47:41;;;;;;;4.03;2.77;;;;;;;16.05;100.00;96234.75;5052558;27;105736;-63
2023/07/23 01:50:09;;;;;;;2.70;2.50;;;;;;;16.16;100.00;96237.03;5051885;27;105527;-63
2023/07/23 01:52:36;;;;;;;3.27;2.60;;;;;;;16.15;100.00;96237.31;5052349;27;101872;-63
2023/07/23 01:55:04;;;;;;;2.80;2.60;;;;;;;15.82;100.00;96235.59;5052405;27;105696;-63
2023/07/23 01:57:32;;;;;;;3.27;2.97;;;;;;;16.01;100.00;96239.09;5055219;27;105799;-63
2023/07/23 01:59:59;;;;;;;3.20;2.93;;;;;;;15.82;100.00;96239.06;5052405;27;105199;-63
2023/07/23 02:02:26;;;;;;;4.27;3.13;;;;;;;15.91;100.00;96244.59;5051523;27;105084;-63
2023/07/23 02:04:52;;;;;;;3.83;2.80;;;;;;;15.85;100.00;96235.81;5052219;27;101851;-63
2023/07/23 02:07:19;;;;;;;4.73;3.10;;;;;;;15.98;100.00;96240.47;5052069;27;105167;-63
2023/07/23 02:09:50;;;;;;;4.23;3.40;;;;;;;15.86;100.00;96233.94;5070018;27;103089;-63
2023/07/23 02:12:18;;;;;;;3.13;2.83;;;;;;;16.11;100.00;96250.50;5052179;27;102108;-63
2023/07/23 02:14:48;;;;;;;2.97;2.67;;;;;;;16.17;100.00;96240.47;5053074;27;101832;-63
2023/07/23 02:17:15;;;;;;;4.50;3.10;;;;;;;15.98;100.00;96234.31;5051367;27;105738;-63
2023/07/23 02:19:43;;;;;;;2.80;2.60;;;;;;;16.06;100.00;96236.34;5055544;27;102461;-63
2023/07/23 02:22:10;;;;;;;3.97;2.60;;;;;;;15.91;100.00;96228.50;5051333;27;105351;-63
2023/07/23 02:24:37;;;;;;;2.73;2.53;;;;;;;16.22;100.00;96240.41;5070487;27;102077;-62
2023/07/23 02:27:05;;;;;;;3.27;2.97;;;;;;;16.26;100.00;96236.88;5069530;27;102419;-63
2023/07/23 02:29:32;;;;;;;4.07;3.20;;;;;;;16.04;100.00;96231.28;5069871;27;102960;-63
2023/07/23 02:32:00;;;;;;;3.37;2.90;;;;;;;16.02;100.00;96244.16;5051768;27;102052;-62
2023/07/23 02:34:27;;;;;;;3.10;2.80;;;;;;;16.27;100.00;96245.72;5051920;27;105261;-62
2023/07/23 02:36:54;;;;;;;2.53;2.33;;;;;;;16.17;100.00;96237.81;5069684;27;101857;-62
2023/07/23 02:39:20;;;;;;;3.67;2.77;;;;;;;16.12;100.00;96237.88;5051451;27;102005;-62
2023/07/23 02:41:47;;;;;;;3.93;2.90;;;;;;;16.09;100.00;96236.56;5054649;27;105369;-63
2023/07/23 02:44:14;;;;;;;3.00;2.70;;;;;;;16.04;100.00;96238.53;5051901;27;102156;-63
2023/07/23 02:46:41;;;;;;;3.00;2.60;;;;;;;16.20;100.00;96248.78;5051803;27;104028;-63
2023/07/23 02:49:09;;;;;;;2.93;2.73;;;;;;;15.98;100.00;96242.34;5050972;27;105565;-63
2023/07/23 02:51:36;;;;;;;3.23;2.87;;;;;;;15.82;100.00;96233.72;5051636;27;102455;-63
2023/07/23 02:54:03;;;;;;;3.70;2.80;;;;;;;15.84;100.00;96244.13;5051575;27;105597;-62
2023/07/23 02:56:30;;;;;;;2.80;2.57;;;;;;;15.72;100.00;96247.22;5069449;27;102482;-63
2023/07/23 02:58:58;;;;;;;4.43;3.00;;;;;;;15.74;100.00;96250.41;5051327;27;101930;-63
2023/07/23 03:01:24;;;;;;;2.80;2.57;;;;;;;15.70;100.00;96251.28;5051544;27;105195;-63
2023/07/23 03:03:51;;;;;;;4.93;2.83;;;;;;;15.65;100.00;96246.75;5053968;27;101930;-63
2023/07/23 03:06:20;;;;;;;4.57;3.03;;;;;;;15.70;100.00;96245.91;5051016;27;105629;-63
2023/07/23 03:08:47;;;;;;;3.10;2.80;;;;;;;15.91;100.00;96249.97;5050819;27;106130;-63
2023/07/23 03:11:14;;;;;;;5.10;3.00;;;;;;;15.87;100.00;96247.03;5051487;27;101891;-63
2023/07/23 03:13:42;;;;;;;3.43;2.53;;;;;;;15.90;100.00;96249.16;5069668;27;102869;-63
2023/07/23 03:16:10;;;;;;;3.60;3.10;;;;;;;15.68;100.00;96251.56;5069272;27;102557;-63
2023/07/23 03:18:37;;;;;;;5.03;2.77;;;;;;;15.87;100.00;96251.63;5051322;27;102240;-63
2023/07/23 03:21:05;;;;;;;4.47;2.83;;;;;;;15.83;100.00;96258.63;5051204;27;105710;-62
2023/07/23 03:23:34;;;;;;;3.10;2.77;;;;;;;15.79;100.00;96252.22;5053998;27;105507;-63
2023/07/23 03:26:01;;;;;;;3.40;3.10;;;;;;;15.90;100.00;96251.84;5069584;27;102880;-62
2023/07/23 03:28:28;;;;;;;5.90;3.30;;;;;;;15.69;100.00;96247.00;5068939;27;102894;-62
2023/07/23 03:30:54;;;;;;;2.87;2.47;;;;;;;15.57;100.00;96247.38;5069630;27;102221;-62
2023/07/23 03:33:21;;;;;;;3.30;2.70;;;;;;;15.53;100.00;96249.03;5051050;27;105612;-63
2023/07/23 03:35:48;;;;;;;3.10;2.80;;;;;;;15.67;100.00;96259.88;5050520;27;105740;-63
2023/07/23 03:38:16;;;;;;;3.77;3.03;;;;;;;15.53;100.00;96249.03;5052724;27;101986;-62
2023/07/23 03:40:44;;;;;;;3.53;3.00;;;;;;;15.49;100.00;96248.00;5054560;27;104095;-62
2023/07/23 03:43:11;;;;;;;5.37;3.40;;;;;;;15.45;100.00;96251.53;5053532;27;104043;-62
2023/07/23 03:45:38;;;;;;;3.67;3.03;;;;;;;15.61;100.00;96253.78;5076408;27;101858;-62
2023/07/23 03:48:05;;;;;;;3.40;2.50;;;;;;;15.42;100.00;96244.09;5072306;27;102610;-63
2023/07/23 03:50:32;;;;;;;3.23;2.70;;;;;;;15.29;100.00;96250.06;5054389;27;101916;-62
2023/07/23 03:52:59;;;;;;;3.33;3.00;;;;;;;15.25;100.00;96254.38;5054293;27;105636;-63
2023/07/23 03:55:26;;;;;;;4.07;3.10;;;;;;;15.37;100.00;96252.97;5053711;27;105342;-63
2023/07/23 03:57:54;;;;;;;3.97;3.13;;;;;;;15.56;100.00;96263.75;5054088;27;101896;-62
2023/07/23 04:00:21;;;;;;;3.33;3.13;;;;;;;15.53;100.00;96258.97;5054233;27;105792;-62
2023/07/23 04:02:48;;;;;;;3.20;2.90;;;;;;;15.79;100.00;96263.75;5071984;27;102297;-63
2023/07/23 04:05:15;;;;;;;4.33;3.13;;;;;;;15.89;100.00;96252.13;5054063;27;102047;-63
2023/07/23 04:07:42;;;;;;;3.47;3.17;;;;;;;15.68;100.00;96262.28;5056675;27;105539;-63
2023/07/23 04:10:09;;;;;;;3.87;3.10;;;;;;;15.63;100.00;96265.00;5053805;27;102041;-63
2023/07/23 04:12:37;;;;;;;3.33;2.90;;;;;;;15.94;100.00;96260.09;5053978;27;105216;-63
2023/07/23 04:15:07;;;;;;;3.50;3.20;;;;;;;15.96;100.00;96263.31;5053504;27;105801;-63
2023/07/23 04:17:34;;;;;;;3.43;3.13;;;;;;;16.02;100.00;96262.16;5053946;27;102164;-63
2023/07/23 04:20:02;;;;;;;4.00;2.97;;;;;;;16.24;100.00;96257.81;5036936;27;105041;-63
2023/07/23 04:22:29;;;;;;;3.00;2.80;;;;;;;16.16;100.00;96258.50;5053069;27;105576;-63
2023/07/23 04:24:55;;;;;;;3.50;3.00;;;;;;;16.16;100.00;96255.00;5053790;27;101860;-63
2023/07/23 04:27:22;;;;;;;3.07;2.77;;;;;;;16.41;100.00;96266.22;5053660;27;104701;-63
2023/07/23 04:29:49;;;;;;;2.80;2.60;;;;;;;16.51;100.00;96270.66;5056589;27;105194;-63
2023/07/23 04:32:17;;;;;;;2.93;2.60;;;;;;;16.69;100.00;96262.59;5053844;27;103649;-63
2023/07/23 04:34:45;;;;;;;3.37;2.93;;;;;;;16.52;100.00;96261.50;5053056;27;105327;-63
2023/07/23 04:37:13;;;;;;;4.77;2.83;;;;;;;16.77;100.00;96263.81;5072068;27;102690;-62
2023/07/23 04:39:42;;;;;;;3.10;2.80;;;;;;;16.90;100.00;96268.47;5053364;27;106065;-63
2023/07/23 04:42:08;;;;;;;3.13;2.83;;;;;;;17.04;100.00;96266.59;5052831;27;105592;-63
2023/07/23 04:44:35;;;;;;;3.87;2.70;;;;;;;17.17;100.00;96265.88;5053616;27;101935;-63
2023/07/23 04:47:02;;;;;;;3.30;2.60;;;;;;;17.26;100.00;96264.06;5053572;27;105334;-63
2023/07/23 04:49:30;;;;;;;3.67;2.53;;;;;;;17.43;100.00;96267.84;5070201;27;102568;-64
2023/07/23 04:51:57;;;;;;;3.03;2.77;;;;;;;17.55;100.00;96265.47;5075378;27;101938;-63
2023/07/23 04:54:24;;;;;;;2.97;2.70;;;;;;;17.59;100.00;96266.47;5071436;27;102669;-62
2023/07/23 04:56:51;;;;;;;3.90;2.90;;;;;;;17.62;100.00;96265.09;5071578;27;101856;-63
2023/07/23 04:59:18;;;;;;;4.40;2.83;;;;;;;17.67;100.00;96273.06;5053258;27;103865;-64
2023/07/23 05:01:45;;;;;;;3.57;2.87;;;;;;;17.69;100.00;96266.28;5071149;27;102844;-63
2023/07/23 05:04:12;;;;;;;3.03;2.73;;;;;;;17.83;100.00;96267.06;5053168;27;102061;-63
2023/07/23 05:06:40;;;;;;;2.47;2.27;;;;;;;18.44;100.00;96263.97;5071125;27;103732;-63
2023/07/23 05:09:07;;;;;;;3.77;2.90;;;;;;;18.66;100.00;96261.31;5052508;27;106070;-63
2023/07/23 05:11:34;;;;;;;2.67;2.30;;;;;;;19.46;100.00;96259.41;5074925;27;101872;-63
2023/07/23 05:14:01;;;;;;;4.30;2.50;;;;;;;19.15;100.00;96253.16;5070737;27;103171;-63
2023/07/23 05:16:29;;;;;;;2.80;2.60;;;;;;;19.13;100.00;96253.44;5052988;27;101872;-62
2023/07/23 05:18:56;;;;;;;3.53;2.67;;;;;;;19.15;100.00;96258.53;5071459;27;102407;-62
2023/07/23 05:21:23;;;;;;;3.03;2.80;;;;;;;19.17;100.00;96259.81;5070779;27;102592;-63
2023/07/23 05:23:51;;;;;;;2.63;2.40;;;;;;;18.96;100.00;96258.72;5071379;27;101837;-63
2023/07/23 05:26:18;;;;;;;3.10;2.90;;;;;;;19.22;100.00;96256.22;5053017;27;105562;-62
2023/07/23 05:28:44;;;;;;;3.27;2.40;;;;;;;19.22;100.00;96261.63;5070682;27;102731;-62
2023/07/23 05:31:11;;;;;;;3.00;2.80;;;;;;;19.15;100.00;96264.75;5052850;27;101934;-63
2023/07/23 05:33:38;;;;;;;3.10;2.80;;;;;;;19.09;100.00;96265.16;5055652;27;105315;-63
2023/07/23 05:36:05;;;;;;;3.70;2.63;;;;;;;19.56;100.00;96265.31;5052738;27;101995;-63
2023/07/23 05:38:32;;;;;;;5.03;2.40;;;;;;;19.75;100.00;96267.78;5052495;27;105801;-63
2023/07/23 05:41:00;;;;;;;3.13;2.60;;;;;;;20.05;100.00;96269.66;5070376;27;102709;-63
2023/07/23 05:43:29;;;;;;;3.23;2.50;;;;;;;20.02;100.00;96273.78;5070913;27;101746;-63
2023/07/23 05:45:56;;;;;;;6.93;2.80;;;;;;;19.99;100.00;96265.53;5070905;27;103009;-63
2023/07/23 05:48:23;;;;;;;5.07;2.87;;;;;;;20.23;100.00;96274.03;5051923;27;105568;-63
2023/07/23 05:50:50;;;;;;;4.70;2.60;;;;;;;20.33;100.00;96269.13;5070862;27;101986;-63
2023/07/23 05:53:17;;;;;;;5.53;3.03;;;;;;;20.50;100.00;96271.84;5052456;27;105226;-63
2023/07/23 05:55:44;;;;;;;3.60;2.60;;;;;;;20.56;100.00;96272.50;5073817;27;102858;-63
2023/07/23 05:58:13;;;;;;;2.60;2.40;;;;;;;20.74;100.00;96274.94;5070927;27;103037;-63
2023/07/23 06:00:40;;;;;;;3.33;2.70;;;;;;;20.70;100.00;96279.38;5051463;27;105891;-63
2023/07/23 06:03:06;;;;;;;2.83;2.63;;;;;;;20.74;100.00;96277.63;5070661;27;101869;-63
2023/07/23 06:05:33;;;;;;;3.53;3.03;;;;;;;20.46;100.00;96284.44;5051702;27;105756;-63
2023/07/23 06:08:00;;;;;;;2.70;2.50;;;;;;;20.52;100.00;96279.66;5070096;27;102654;-63
2023/07/23 06:10:27;;;;;;;2.77;2.53;;;;;;;20.85;100.00;96278.09;5052168;27;101906;-62
2023/07/23 06:12:54;;;;;;;4.20;2.70;;;;;;;20.97;100.00;96286.41;5052231;27;105598;-61
2023/07/23 06:15:22;;;;;;;3.60;2.90;;;;;;;20.84;100.00;96290.03;5051534;27;104092;-63
2023/07/23 06:17:49;;;;;;;2.87;2.43;;;;;;;20.87;100.00;96286.69;5073947;27;102254;-63
2023/07/23 06:20:16;;;;;;;2.87;2.60;;;;;;;21.07;100.00;96286.06;5051574;27;104004;-63
2023/07/23 06:22:43;;;;;;;14.30;3.27;;;;;;;20.94;100.00;96284.34;5051901;27;102239;-63
2023/07/23 06:25:10;;;;;;;3.63;2.80;;;;;;;20.88;100.00;96282.88;5070453;27;102375;-63
2023/07/23 06:27:37;;;;;;;2.67;2.47;;;;;;;20.79;100.00;96285.59;5051232;27;105520;-63
2023/07/23 06:30:05;;;;;;;2.93;2.70;;;;;;;20.77;100.00;96284.31;5070475;27;102005;-63
2023/07/23 06:32:33;;;;;;;3.10;2.73;;;;;;;20.47;100.00;96277.09;5070447;27;102657;-64
2023/07/23 06:35:00;;;;;;;2.73;2.53;;;;;;;20.69;100.00;96291.28;5069686;27;103283;-64
2023/07/23 06:37:27;;;;;;;3.17;2.80;;;;;;;20.71;100.00;96283.66;5070189;27;101810;-63
2023/07/23 06:39:54;;;;;;;3.10;2.90;;;;;;;20.67;100.00;96281.91;5054639;27;104205;-63
2023/07/23 06:42:21;;;;;;;3.67;3.00;;;;;;;20.35;100.00;96280.44;5070171;27;101887;-63
2023/07/23 06:44:48;;;;;;;3.60;2.87;;;;;;;20.28;100.00;96280.06;5070044;27;102402;-63
2023/07/23 06:47:14;;;;;;;3.00;2.70;;;;;;;20.50;100.00;96282.66;5069631;27;102532;-64
2023/07/23 06:49:43;;;;;;;3.50;2.83;;;;;;;20.79;100.00;96279.38;5070101;27;101885;-63
2023/07/23 06:52:10;;;;;;;2.90;2.70;;;;;;;21.03;100.00;96274.34;5069952;27;102502;-64
2023/07/23 06:54:40;;;;;;;4.37;2.70;;;;;;;21.29;100.00;96280.50;5051119;27;106122;-64
2023/07/23 06:57:07;;;;;;;2.83;2.60;;;;;;;21.52;100.00;96281.91;5070411;27;102106;-64
2023/07/23 06:59:34;;;;;;;3.73;2.47;;;;;;;21.62;100.00;96292.38;5051599;27;105255;-64
2023/07/23 07:02:02;;;;;;;3.00;2.67;;;;;;;21.69;100.00;96285.38;5072975;27;103052;-63
2023/07/23 07:04:28;;;;;;;3.87;2.80;;;;;;;21.47;100.00;96285.56;5069999;27;102420;-64
2023/07/23 07:06:57;;;;;;;3.43;2.67;;;;;;;21.47;100.00;96282.84;5069075;27;102541;-64
2023/07/23 07:09:24;;;;;;;3.43;2.80;;;;;;;21.61;100.00;96285.38;5051548;27;101994;-64
2023/07/23 07:11:51;;;;;;;3.27;2.93;;;;;;;21.91;100.00;96285.16;5051445;27;105889;-64
2023/07/23 07:14:18;;;;;;;7.30;2.70;;;;;;;22.29;100.00;96285.94;5054125;27;103757;-63
2023/07/23 07:16:45;;;;;;;5.40;2.90;;;;;;;22.03;100.00;96285.28;5073528;27;101960;-63
2023/07/23 07:19:11;;;;;;;3.50;2.83;;;;;;;21.83;100.00;96282.47;5054869;27;105464;-64
2023/07/23 07:21:38;;;;;;;3.80;2.63;;;;;;;21.92;100.00;96281.34;5057708;27;105883;-64
2023/07/23 07:24:07;;;;;;;2.90;2.70;;;;;;;21.82;100.00;96280.88;5054689;27;105095;-64
2023/07/23 07:26:34;;;;;;;2.90;2.70;;;;;;;22.21;100.00;96283.25;5054014;27;105919;-64
2023/07/23 07:29:01;;;;;;;3.10;2.50;;;;;;;22.53;100.00;96274.50;5054788;27;101899;-63
2023/07/23 07:31:27;;;;;;;4.20;2.50;;;;;;;22.85;100.00;96265.69;5054757;27;105283;-64
2023/07/23 07:33:54;;;;;;;4.20;2.40;;;;;;;23.30;100.00;96264.69;5054090;27;105940;-64
2023/07/23 07:36:21;;;;;;;3.00;2.70;;;;;;;23.59;100.00;96258.34;5054700;27;102130;-63
2023/07/23 07:38:48;;;;;;;2.93;2.60;;;;;;;23.61;100.00;96262.31;5073091;27;102591;-64
2023/07/23 07:41:16;;;;;;;2.80;2.60;;;;;;;23.78;100.00;96255.88;5072420;27;103072;-64
2023/07/23 07:43:43;;;;;;;3.07;2.77;;;;;;;23.88;100.00;96260.88;5076425;27;102022;-64
2023/07/23 07:46:10;;;;;;;4.37;2.73;;;;;;;23.93;100.00;96256.03;5053937;27;105981;-64
2023/07/23 07:48:37;;;;;;;3.93;2.37;;;;;;;23.95;100.00;96252.97;5054506;27;101889;-64
2023/07/23 07:51:06;;;;;;;4.13;2.70;;;;;;;24.04;100.00;96259.88;5054355;27;103761;-64
2023/07/23 07:53:35;;;;;;;3.00;2.30;;;;;;;24.22;100.00;96255.03;5053700;27;105487;-64
2023/07/23 07:56:02;;;;;;;2.67;2.47;;;;;;;24.36;100.00;96255.50;5054386;27;101912;-64
2023/07/23 07:58:31;;;;;;;3.30;2.43;;;;;;;24.27;100.00;96252.91;5054222;27;105317;-64
2023/07/23 08:00:59;;;;;;;2.60;2.40;;;;;;;24.31;100.00;96253.00;5072158;27;102763;-63
2023/07/23 08:03:28;;;;;;;3.53;2.60;;;;;;;24.28;100.00;96253.66;5053936;27;101768;-64
2023/07/23 08:05:55;;;;;;;3.43;2.57;;;;;;;24.29;100.00;96255.25;5056484;27;105849;-64
2023/07/23 08:08:26;;;;;;;2.70;2.50;;;;;;;24.57;100.00;96253.44;5072853;27;101899;-63
2023/07/23 08:10:55;;;;;;;2.63;2.40;;;;;;;24.93;100.00;96242.50;5054438;27;105328;-63
2023/07/23 08:13:22;;;;;;;2.70;2.50;;;;;;;25.24;100.00;96237.94;5053247;27;105318;-63
2023/07/23 08:15:51;;;;;;;3.00;2.80;;;;;;;25.36;100.00;96240.66;5054003;27;101936;-63
2023/07/23 08:18:19;;;;;;;6.63;2.47;;;;;;;25.31;100.00;96238.19;5072311;27;101798;-63
2023/07/23 08:20:46;;;;;;;2.53;2.33;;;;;;;25.27;100.00;96239.22;5053331;27;105697;-63
2023/07/23 08:23:14;;;;;;;3.17;2.50;;;;;;;25.18;100.00;96238.56;5072235;27;101899;-63
2023/07/23 08:25:44;;;;;;;2.93;2.40;;;;;;;24.78;100.00;96240.50;5071247;27;101771;-63
2023/07/23 08:28:18;;;;;;;3.33;2.70;;;;;;;24.40;100.00;96240.06;5075162;27;102820;-63
2023/07/23 08:30:46;;;;;;;3.50;2.40;;;;;;;24.63;100.00;96235.78;5053863;27;105218;-64
2023/07/23 08:33:17;;;;;;;2.90;2.70;;;;;;;24.93;100.00;96232.41;5071419;27;102632;-63
2023/07/23 08:35:44;;;;;;;2.83;2.63;;;;;;;24.79;100.00;96231.22;5072592;27;102135;-64
2023/07/23 08:38:11;;;;;;;3.00;2.70;;;;;;;24.98;100.00;96240.34;5053392;27;105732;-63
2023/07/23 08:40:43;;;;;;;2.73;2.53;;;;;;;24.81;100.00;96237.91;5071506;27;103152;-64
2023/07/23 08:43:44;;;;;;;3.37;2.87;;;;;;;24.81;100.00;96234.38;5072400;27;102081;-63
2023/07/23 08:46:22;;;;;;;3.20;2.50;;;;;;;25.16;100.00;96238.09;5072175;27;102924;-63
2023/07/23 08:49:09;;;;;;;2.50;2.30;;;;;;;25.43;100.00;96229.16;5071405;27;102804;-63
2023/07/23 08:51:42;;;;;;;3.97;2.67;;;;;;;24.98;100.00;96231.38;5075660;27;102049;-63
2023/07/23 08:54:09;;;;;;;2.80;2.60;;;;;;;25.77;100.00;96226.56;5052866;27;105646;-63
2023/07/23 08:56:37;;;;;;;2.97;2.70;;;;;;;25.89;100.00;96236.63;5071819;27;101860;-63
2023/07/23 08:59:06;;;;;;;3.23;2.93;;;;;;;25.77;100.00;96228.53;5071831;27;102432;-64
2023/07/23 09:01:34;;;;;;;3.07;2.80;;;;;;;25.86;100.00;96227.22;5052586;27;105366;-63
2023/07/23 09:04:02;;;;;;;2.87;2.57;;;;;;;26.22;96.56;96228.91;5071764;27;102134;-63
2023/07/23 09:06:31;;;;;;;2.77;2.57;;;;;;;26.16;100.00;96219.41;5052555;27;104111;-64
2023/07/23 09:09:03;;;;;;;2.50;2.27;;;;;;;26.75;94.33;96226.25;5052565;27;105803;-63
2023/07/23 09:11:30;;;;;;;2.40;2.20;;;;;;;26.43;100.00;96224.72;5053240;27;102079;-63
2023/07/23 09:13:59;;;;;;;2.33;2.13;;;;;;;27.02;92.49;96214.34;5074497;27;102552;-63
2023/07/23 09:16:26;;;;;;;2.70;2.50;;;;;;;26.64;85.33;96221.72;5052974;27;102757;-64
2023/07/23 09:18:53;;;;;;;2.43;2.20;;;;;;;26.89;81.12;96212.91;5053063;27;104033;-63
2023/07/23 09:21:26;;;;;;;2.60;2.40;;;;;;;27.13;64.23;96206.41;5070859;27;102452;-64
2023/07/23 09:23:53;;;;;;;2.37;2.20;;;;;;;26.94;61.59;96211.84;5052977;27;102163;-64
2023/07/23 09:26:22;;;;;;;2.70;2.30;;;;;;;27.55;75.04;96204.47;5071422;27;102444;-64
2023/07/23 09:28:51;;;;;;;2.90;2.20;;;;;;;27.72;55.93;96204.00;5070601;27;102604;-64
2023/07/23 09:31:24;;;;;;;2.20;2.10;;;;;;;27.89;67.65;96203.56;5070987;27;101851;-64
2023/07/23 09:33:55;;;;;;;2.13;1.97;;;;;;;28.06;70.38;96212.06;5074407;27;102314;-64
2023/07/23 09:36:25;;;;;;;2.57;2.37;;;;;;;28.44;50.62;96209.16;5070979;27;101707;-64
2023/07/23 09:38:57;;;;;;;2.27;2.10;;;;;;;28.36;45.06;96206.66;5070750;27;102839;-64
2023/07/23 09:41:28;;;;;;;2.10;1.90;;;;;;;28.10;42.21;96203.91;5051943;27;105324;-64
2023/07/23 09:43:58;;;;;;;1.87;1.77;;;;;;;28.22;45.16;96201.00;5052696;27;101788;-63
2023/07/23 09:46:26;;;;;;;2.20;2.10;;;;;;;28.31;42.05;96206.97;5052403;27;105392;-64
2023/07/23 09:48:53;;;;;;;2.70;2.30;;;;;;;27.69;41.78;96194.59;5070294;27;103173;-63
2023/07/23 09:51:21;;;;;;;2.10;1.90;;;;;;;28.50;41.15;96201.44;5052532;27;101992;-64
2023/07/23 09:53:49;;;;;;;2.23;2.03;;;;;;;28.53;38.79;96197.94;5071052;27;102904;-64
2023/07/23 09:56:18;;;;;;;2.77;2.10;;;;;;;28.98;40.18;96190.38;5073624;27;102107;-65
2023/07/23 09:58:47;;;;;;;2.30;2.10;;;;;;;29.33;39.28;96188.09;5070933;27;102985;-63
2023/07/23 10:01:15;;;;;;;2.22;2.00;;;;;;;29.44;39.51;96190.94;5051860;27;105365;-64
2023/07/23 10:03:44;;;;;;;2.42;2.20;;;;;;;29.77;40.92;96190.91;5052367;27;102217;-66
2023/07/23 10:06:12;;;;;;;2.33;2.13;;;;;;;28.94;37.22;96191.50;5051751;27;105575;-65
2023/07/23 10:08:43;;;;;;;3.05;2.38;;;;;;;29.46;41.72;96188.59;5051617;27;104081;-65
2023/07/23 10:11:13;;;;;;;2.50;2.28;;;;;;;29.97;38.93;96189.53;5070537;27;102082;-68
2023/07/23 10:13:41;;;;;;;2.65;2.45;;;;;;;29.81;41.81;96188.97;5052242;27;104909;-64
2023/07/23 10:16:10;;;;;;;3.17;2.28;;;;;;;29.70;37.26;96177.91;5051461;27;105666;-65
2023/07/23 10:18:41;;;;;;;2.60;2.40;;;;;;;30.09;36.05;96181.78;5074111;27;102063;-65
2023/07/23 10:21:08;;;;;;;2.58;2.38;;;;;;;30.08;37.44;96174.72;5051427;27;105207;-65
2023/07/23 10:23:38;;;;;;;3.38;2.47;;;;;;;29.80;34.50;96177.22;5070591;27;101807;-65
2023/07/23 10:26:23;;;;;;;2.50;2.30;;;;;;;29.54;36.64;96173.84;5051969;27;105627;-65
2023/07/23 10:28:52;;;;;;;2.92;2.47;;;;;;;29.81;35.13;96176.03;5051270;27;105473;-65
2023/07/23 10:31:21;;;;;;;3.20;2.90;;;;;;;29.75;36.06;96172.06;5070369;27;101758;-65
2023/07/23 10:33:49;;;;;;;3.20;2.92;;;;;;;29.70;35.92;96166.16;5070328;27;102539;-65
2023/07/23 10:36:16;;;;;;;3.05;2.80;;;;;;;29.97;36.05;96170.31;5069779;27;102645;-65
2023/07/23 10:38:44;;;;;;;2.95;2.72;;;;;;;30.45;36.72;96163.66;5051779;27;101986;-65
2023/07/23 10:41:11;;;;;;;2.70;2.50;;;;;;;30.57;36.86;96163.31;5054644;27;105620;-66
2023/07/23 10:43:42;;;;;;;3.80;3.50;;;;;;;31.06;35.96;96160.84;5069965;27;101855;-63
2023/07/23 10:46:11;;;;;;;3.13;2.75;;;;;;;30.05;34.12;96156.28;5034524;27;106728;-61
2023/07/23 10:48:43;;;;;;;3.45;3.15;;;;;;;29.90;37.68;96148.31;5053551;27;105728;-64
2023/07/23 10:51:11;;;;;;;3.50;3.20;;;;;;;29.96;36.94;96153.06;5055367;27;101845;-64
2023/07/23 10:53:40;;;;;;;3.08;2.88;;;;;;;29.96;34.63;96149.56;5073754;27;102871;-64
2023/07/23 10:56:26;;;;;;;2.95;2.75;;;;;;;31.08;37.68;96147.50;5054445;27;105375;-63
2023/07/23 10:59:02;;;;;;;2.88;2.67;;;;;;;31.30;35.97;96138.97;5055259;27;101861;-64
2023/07/23 11:01:30;;;;;;;3.30;2.83;;;;;;;31.61;33.61;96131.97;5055107;27;104865;-63
2023/07/23 11:04:01;;;;;;;3.53;3.15;;;;;;;31.46;33.45;96136.66;5058023;27;105202;-64
2023/07/23 11:06:30;;;;;;;3.00;2.70;;;;;;;29.32;34.46;96136.41;5054722;27;105325;-64
2023/07/23 11:08:59;;;;;;;3.28;2.60;;;;;;;30.15;33.55;96130.13;5054381;27;105380;-64
2023/07/23 11:11:30;;;;;;;3.47;3.00;;;;;;;30.43;33.39;96135.78;5073583;27;102156;-63
2023/07/23 11:13:59;;;;;;;3.38;3.08;;;;;;;31.06;33.83;96133.38;5054791;27;104967;-64
2023/07/23 11:16:27;;;;;;;2.95;2.65;;;;;;;31.15;33.13;96133.78;5054313;27;105640;-64
2023/07/23 11:18:55;;;;;;;3.10;2.88;;;;;;;31.26;32.97;96131.88;5054812;27;101930;-64
2023/07/23 11:21:27;;;;;;;3.03;2.83;;;;;;;30.27;30.91;96132.53;5054917;27;104900;-64
2023/07/23 11:23:54;;;;;;;3.90;3.05;;;;;;;30.68;32.68;96123.78;5054359;27;105389;-64